ADDS METAR Data INFO
IDs: Format: Raw Decoded Include TAF

Data at: 1311 UTC 19 Jul 2018

KBED 191256Z VRB03KT 10SM CLR 21/11 A3008 RMK AO2 SLP197 T02060106
KBED 191156Z 34003KT 10SM R11/4500VP6000FT CLR 18/11 A3007 RMK AO2 RAB08E17 SLP195 P0000 60000 T01780111 10178 20111 51013
KBED 191056Z 00000KT 10SM CLR 14/11 A3006 RMK AO2 SLP191 T01440111
KBED 190956Z AUTO 26003KT 10SM CLR 11/09 A3005 RMK AO2 SLP188 T01110094
KBED 190856Z AUTO 00000KT 10SM CLR 11/09 A3004 RMK AO2 SLP182 T01110094 53013
KBED 190756Z AUTO 00000KT 10SM CLR 12/10 A3002 RMK AO2 SLP176 T01220100
KBED 190656Z AUTO 00000KT 10SM CLR 13/10 A3001 RMK AO2 SLP173 T01280100
KBED 190556Z AUTO 00000KT 10SM CLR 14/10 A3000 RMK AO2 SLP170 T01440100 10222 20133 53013
KBED 190456Z AUTO 33005KT 10SM CLR 16/10 A2998 RMK AO2 SLP164 T01560100 402780139
KBED 190356Z AUTO 00000KT 10SM CLR 15/12 A2997 RMK AO2 SLP159 T01500122
KBED 190256Z AUTO 26003KT 10SM CLR 16/12 A2996 RMK AO2 SLP157 T01610122 51019
KBED 190156Z 31005KT 10SM CLR 16/12 A2995 RMK AO2 SLP153 T01610122
KBED 190056Z 30003KT 10SM FEW065 18/12 A2993 RMK AO2 SLP145 T01830117
KBED 182356Z 31004KT 10SM CLR 22/11 A2990 RMK AO2 SLP136 T02170106 10278 20217 53013
KBED 182303Z 33009KT 10SM FEW002 25/09 A2988 RMK AO2 T02500089
KBED 182256Z 33010KT 10SM FEW050 25/09 A2988 RMK AO2 SLP130 T02500089
KBED 182156Z 34007KT 10SM FEW060 FEW200 27/09 A2987 RMK AO2 SLP126 T02670094
KBED 182056Z 35008KT 10SM FEW050 FEW200 27/11 A2986 RMK AO2 SLP123 T02670106 53002
KBED 181956Z COR 32010KT 10SM FEW050 FEW200 27/11 A2986 RMK AO2 SLP122 T02720111
KBED 181856Z COR 34009KT 10SM SCT050 SCT200 27/12 A2986 RMK AO2 SLP121 T02720122
KBED 181756Z 33009KT 10SM CLR 27/12 A2986 RMK AO2 SLP121 T02720122 10272 20211 56005
KBED 181656Z 33010G19KT 10SM CLR 26/12 A2986 RMK AO2 SLP122 T02610122
KBED 181556Z 32009KT 10SM CLR 26/14 A2987 RMK AO2 SLP124 T02560144
KBED 181456Z 33013KT 10SM FEW080 24/13 A2987 RMK AO2 SLP126 T02440133 51006
KBED 181430Z 34012G20KT 10SM FEW002 24/14 A2987 RMK AO2 T02390139
KBED 181356Z 34016KT 10SM SCT080 23/14 A2987 RMK AO2 SLP125 T02330144
KBED 181302Z 34009KT 10SM BKN090 22/16 A2987 RMK AO2 T02170161
KBED 181256Z 34009KT 10SM BKN080 22/16 A2987 RMK AO2 SLP124 T02170161
KBED 181156Z 34008KT 10SM BKN080 21/17 A2985 RMK AO2 SLP120 60000 70191 T02110172 10211 20200 52019
KBED 181056Z 34008KT 10SM BKN080 21/17 A2984 RMK AO2 RAE0957 SLP114 P0000 T02060172
KBED 180956Z AUTO 33008KT 10SM -RA BKN100 21/18 A2982 RMK AO2 RAB48 SLP108 P0000 T02060183
KBED 180856Z AUTO 32004KT 10SM BKN100 21/19 A2980 RMK AO2 SLP101 60000 T02060194 53014
KBED 180756Z AUTO 00000KT 10SM FEW075 21/19 A2976 RMK AO2 RAB00E12 SLP088 P0000 T02060194
KBED 180656Z AUTO 00000KT 10SM FEW070 SCT100 21/19 A2976 RMK AO2 SLP089 T02060194
KBED 180556Z AUTO 00000KT 10SM FEW010 21/20 A2976 RMK AO2 SLP087 60010 T02060200 10211 20206 58004
KBED 180456Z AUTO 18004KT 10SM FEW013 BKN080 OVC110 21/20 A2976 RMK AO2 SLP088 T02110200
KBED 180356Z AUTO 28005KT 10SM SCT110 21/19 A2976 RMK AO2 SLP088 T02060194
KBED 180256Z AUTO 24004KT 10SM BKN050 21/20 A2977 RMK AO2 RAE42 SLP089 P0004 60010 T02110200 58008
KBED 180156Z 23008KT 6SM -RA BR SCT005 OVC075 21/20 A2979 RMK AO2 RAB10 SLP098 P0006 T02110200